createdAt,value
2022-12-23T00:00:15.326Z,21.70
2022-12-23T00:02:43.301Z,19.33
2022-12-23T00:05:11.794Z,18.02
2022-12-23T00:07:39.504Z,12.63
2022-12-23T00:10:07.947Z,12.90
2022-12-23T00:12:53.418Z,12.73
2022-12-23T00:15:22.462Z,14.20
2022-12-23T00:17:50.174Z,17.02
2022-12-23T00:20:17.843Z,18.52
2022-12-23T00:23:03.098Z,15.67
2022-12-23T00:25:44.843Z,15.05
2022-12-23T00:28:14.967Z,19.40
2022-12-23T00:30:49.299Z,14.43
2022-12-23T00:33:19.316Z,14.30
2022-12-23T00:35:47.623Z,18.13
2022-12-23T00:38:15.880Z,12.00
2022-12-23T00:41:01.300Z,15.57
2022-12-23T00:43:29.181Z,14.57
2022-12-23T00:45:58.290Z,12.23
2022-12-23T00:48:43.830Z,9.95
2022-12-23T00:51:11.432Z,9.20
2022-12-23T00:53:39.074Z,18.65
2022-12-23T00:56:07.011Z,17.58
2022-12-23T00:58:34.714Z,18.13
2022-12-23T01:01:21.166Z,16.83
2022-12-23T01:04:06.409Z,14.17
2022-12-23T01:06:34.056Z,11.38
2022-12-23T01:09:01.667Z,10.10
2022-12-23T01:11:29.442Z,20.57
2022-12-23T01:13:57.086Z,11.15
2022-12-23T01:16:26.164Z,21.08
2022-12-23T01:18:53.911Z,11.23
2022-12-23T01:21:21.574Z,12.37
2022-12-23T01:23:49.230Z,17.37
2022-12-23T01:26:16.884Z,13.65
2022-12-23T01:28:44.538Z,12.48
2022-12-23T01:31:12.290Z,17.48
2022-12-23T01:33:41.291Z,19.00
2022-12-23T01:36:11.129Z,14.98
2022-12-23T01:38:38.750Z,10.10
2022-12-23T01:41:06.978Z,12.63
2022-12-23T01:43:46.581Z,16.67
2022-12-23T01:46:15.347Z,14.87
2022-12-23T01:48:49.893Z,16.65
2022-12-23T01:51:22.752Z,14.75
2022-12-23T01:53:54.046Z,9.60
2022-12-23T01:56:25.744Z,20.02
2022-12-23T01:58:58.387Z,18.00
2022-12-23T02:01:45.532Z,14.50
2022-12-23T02:04:18.826Z,21.38
2022-12-23T02:07:07.162Z,15.53
2022-12-23T02:09:37.421Z,15.50
2022-12-23T02:12:41.717Z,18.48
2022-12-23T02:15:34.224Z,15.00
2022-12-23T02:18:21.817Z,16.95
2022-12-23T02:21:11.075Z,23.38
2022-12-23T02:24:13.022Z,14.82
2022-12-23T02:27:07.085Z,15.90
2022-12-23T02:30:04.432Z,15.10
2022-12-23T02:32:46.110Z,18.07
2022-12-23T02:35:16.217Z,21.42
2022-12-23T02:37:54.393Z,11.83
2022-12-23T02:40:32.444Z,11.57
2022-12-23T02:43:05.569Z,17.17
2022-12-23T02:45:38.844Z,16.45
2022-12-23T02:48:13.587Z,22.45
2022-12-23T02:50:44.693Z,22.50
2022-12-23T02:53:20.186Z,21.88
2022-12-23T02:55:51.936Z,20.13
2022-12-23T02:58:23.930Z,24.88
2022-12-23T03:00:52.497Z,15.43
2022-12-23T03:03:22.149Z,20.10
2022-12-23T03:05:52.095Z,22.27
2022-12-23T03:08:25.162Z,21.25
2022-12-23T03:11:05.722Z,19.42
2022-12-23T03:14:00.792Z,15.07
2022-12-23T03:16:34.817Z,17.75
2022-12-23T03:19:14.359Z,18.10
2022-12-23T03:21:46.822Z,23.90
2022-12-23T03:24:23.770Z,19.33
2022-12-23T03:26:58.849Z,16.83
2022-12-23T03:29:31.862Z,19.23
2022-12-23T03:32:02.509Z,17.17
2022-12-23T03:34:37.109Z,21.55
2022-12-23T03:37:08.075Z,20.30
2022-12-23T03:39:39.717Z,21.67
2022-12-23T03:42:12.680Z,21.67
2022-12-23T03:45:03.641Z,19.97
2022-12-23T03:47:36.223Z,22.67
2022-12-23T03:50:10.386Z,24.42
2022-12-23T03:52:44.789Z,18.63
2022-12-23T03:55:18.306Z,18.50
2022-12-23T03:57:53.611Z,28.30
2022-12-23T04:00:21.284Z,19.60
2022-12-23T04:02:58.799Z,18.98
2022-12-23T04:05:32.737Z,22.33
2022-12-23T04:08:04.550Z,16.77
2022-12-23T04:10:32.824Z,20.55
2022-12-23T04:13:00.607Z,28.37
2022-12-23T04:15:29.149Z,18.60
2022-12-23T04:17:58.350Z,17.15
2022-12-23T04:20:27.833Z,17.80
2022-12-23T04:22:55.505Z,16.20
2022-12-23T04:25:23.257Z,20.92
2022-12-23T04:27:50.911Z,23.20
2022-12-23T04:30:18.652Z,20.73
2022-12-23T04:32:46.308Z,20.63
2022-12-23T04:35:14.382Z,21.17
2022-12-23T04:37:43.412Z,15.50
2022-12-23T04:40:11.324Z,18.97
2022-12-23T04:42:38.984Z,24.33
2022-12-23T04:45:07.588Z,16.98
2022-12-23T04:47:35.476Z,20.40
2022-12-23T04:50:03.202Z,18.88
2022-12-23T04:52:30.837Z,19.05
2022-12-23T04:54:59.821Z,31.40
2022-12-23T04:57:27.476Z,15.70
2022-12-23T04:59:55.091Z,17.37
2022-12-23T05:02:22.809Z,15.93
2022-12-23T05:04:50.531Z,15.35
2022-12-23T05:07:18.394Z,18.93
2022-12-23T05:09:45.991Z,14.90
2022-12-23T05:12:14.942Z,14.57
2022-12-23T05:14:42.613Z,16.65
2022-12-23T05:17:10.245Z,9.93
2022-12-23T05:19:37.863Z,15.90
2022-12-23T05:22:05.578Z,18.30
2022-12-23T05:24:33.212Z,18.17
2022-12-23T05:27:00.917Z,19.25
2022-12-23T05:29:29.896Z,12.23
2022-12-23T05:31:57.693Z,13.73
2022-12-23T05:34:25.395Z,11.80
2022-12-23T05:36:53.054Z,11.65
2022-12-23T05:39:20.711Z,12.07
2022-12-23T05:41:48.457Z,11.27
2022-12-23T05:44:16.178Z,18.52
2022-12-23T05:46:45.138Z,13.57
2022-12-23T05:49:12.765Z,13.55
2022-12-23T05:51:40.439Z,13.55
2022-12-23T05:54:08.063Z,18.23
2022-12-23T05:56:35.713Z,16.00
2022-12-23T05:59:03.984Z,21.05
2022-12-23T06:01:31.681Z,17.33
2022-12-23T06:04:00.746Z,21.75
2022-12-23T06:06:28.685Z,23.38
2022-12-23T06:08:59.856Z,17.40
2022-12-23T06:11:28.095Z,18.15
2022-12-23T06:13:55.794Z,16.65
2022-12-23T06:16:23.552Z,19.88
2022-12-23T06:18:55.402Z,17.35
2022-12-23T06:21:25.346Z,22.17
2022-12-23T06:23:53.056Z,20.27
2022-12-23T06:26:20.693Z,15.63
2022-12-23T06:28:48.337Z,24.77
2022-12-23T06:31:16.181Z,17.58
2022-12-23T06:33:43.824Z,19.75
2022-12-23T06:36:11.459Z,25.60
2022-12-23T06:38:40.455Z,22.92
2022-12-23T06:41:08.559Z,18.02
2022-12-23T06:43:36.487Z,23.48
2022-12-23T06:46:04.216Z,17.42
2022-12-23T06:48:32.037Z,19.08
2022-12-23T06:50:59.640Z,20.52
2022-12-23T06:53:27.299Z,17.50
2022-12-23T06:56:01.929Z,21.58
2022-12-23T06:58:29.547Z,16.90
2022-12-23T07:00:57.269Z,21.35
2022-12-23T07:03:25.133Z,21.60
2022-12-23T07:05:53.008Z,21.73
2022-12-23T07:08:20.974Z,26.95
2022-12-23T07:10:48.616Z,18.63
2022-12-23T07:13:17.763Z,18.70
2022-12-23T07:15:45.470Z,18.25
2022-12-23T07:18:13.099Z,23.00
2022-12-23T07:20:40.685Z,25.13
2022-12-23T07:23:08.738Z,26.27
2022-12-23T07:25:36.496Z,22.75
2022-12-23T07:28:04.240Z,20.25
2022-12-23T07:30:33.219Z,26.02
2022-12-23T07:33:00.850Z,21.50
2022-12-23T07:35:29.160Z,25.63
2022-12-23T07:37:57.547Z,23.17
2022-12-23T07:40:25.903Z,25.42
2022-12-23T07:42:56.597Z,30.85
2022-12-23T07:45:24.322Z,18.65
2022-12-23T07:47:55.207Z,21.83
2022-12-23T07:50:23.612Z,22.70
2022-12-23T07:52:51.265Z,21.42
2022-12-23T07:55:19.327Z,15.75
2022-12-23T07:57:48.871Z,21.67
2022-12-23T08:00:17.470Z,21.55
2022-12-23T08:02:45.275Z,21.00
2022-12-23T08:05:15.128Z,27.63
2022-12-23T08:07:44.916Z,22.13
2022-12-23T08:10:13.605Z,25.35
2022-12-23T08:12:41.282Z,28.65
2022-12-23T08:15:10.205Z,23.25
2022-12-23T08:17:37.866Z,21.70
2022-12-23T08:20:06.364Z,29.50
2022-12-23T08:22:35.478Z,28.08
2022-12-23T08:25:03.126Z,24.65
2022-12-23T08:27:30.999Z,22.83
2022-12-23T08:29:58.713Z,19.52
2022-12-23T08:32:28.042Z,20.20
2022-12-23T08:34:57.502Z,20.17
2022-12-23T08:37:25.572Z,22.90
2022-12-23T08:39:54.563Z,19.33
2022-12-23T08:42:22.176Z,24.47
2022-12-23T08:44:49.870Z,19.13
2022-12-23T08:47:17.494Z,19.90
2022-12-23T08:49:45.175Z,19.83
2022-12-23T08:52:12.840Z,20.70
2022-12-23T08:54:40.494Z,17.23
2022-12-23T08:57:09.453Z,18.87
2022-12-23T08:59:37.101Z,20.50
2022-12-23T09:02:04.829Z,22.77
2022-12-23T09:04:32.570Z,19.08
2022-12-23T09:07:00.236Z,23.27
2022-12-23T09:09:27.871Z,20.63
2022-12-23T09:11:55.505Z,22.20
2022-12-23T09:14:24.482Z,17.95
2022-12-23T09:16:52.802Z,27.27
2022-12-23T09:19:20.480Z,23.97
2022-12-23T09:21:48.119Z,20.92
2022-12-23T09:24:15.782Z,19.67
2022-12-23T09:26:43.511Z,20.87
2022-12-23T09:29:11.142Z,19.23
2022-12-23T09:31:40.168Z,17.87
2022-12-23T09:34:07.846Z,20.52
2022-12-23T09:36:35.559Z,22.90
2022-12-23T09:39:03.345Z,22.13
2022-12-23T09:41:43.658Z,25.37
2022-12-23T09:44:34.009Z,23.80
2022-12-23T09:47:06.131Z,22.87
2022-12-23T09:49:35.246Z,24.30
2022-12-23T09:52:06.735Z,21.43
2022-12-23T09:54:41.900Z,20.63
2022-12-23T09:57:19.458Z,28.83
2022-12-23T09:59:59.156Z,27.50
2022-12-23T10:02:40.757Z,25.83
2022-12-23T10:05:20.537Z,28.53
2022-12-23T10:07:52.453Z,24.13
2022-12-23T10:10:29.835Z,27.13
2022-12-23T10:13:01.192Z,20.90
2022-12-23T10:15:34.289Z,18.93
2022-12-23T10:18:08.600Z,23.40
2022-12-23T10:20:43.858Z,17.90
2022-12-23T10:23:17.293Z,20.20
2022-12-23T10:25:51.658Z,20.57
2022-12-23T10:28:20.053Z,17.03
2022-12-23T10:31:23.810Z,21.67
2022-12-23T10:33:55.955Z,16.07
2022-12-23T10:36:32.808Z,20.57
2022-12-23T10:39:06.667Z,21.17
2022-12-23T10:41:43.060Z,21.23
2022-12-23T10:44:25.894Z,17.30
2022-12-23T10:47:03.810Z,16.93
2022-12-23T10:49:43.246Z,18.13
2022-12-23T10:52:16.858Z,17.23
2022-12-23T10:54:47.283Z,22.00
2022-12-23T10:57:17.542Z,23.30
2022-12-23T10:59:45.620Z,16.27
2022-12-23T11:02:33.099Z,16.37
2022-12-23T11:05:02.281Z,16.40
2022-12-23T11:07:47.128Z,15.43
2022-12-23T11:10:19.416Z,18.07
2022-12-23T11:12:50.474Z,18.33
2022-12-23T11:15:32.065Z,21.13
2022-12-23T11:18:06.544Z,14.53
2022-12-23T11:20:37.167Z,16.70
2022-12-23T11:23:06.797Z,14.10
2022-12-23T11:25:40.339Z,14.30
2022-12-23T11:28:15.736Z,15.93
2022-12-23T11:30:56.506Z,13.90
2022-12-23T11:33:27.390Z,15.13
2022-12-23T11:36:05.536Z,18.70
2022-12-23T11:38:35.201Z,14.80
2022-12-23T11:41:04.831Z,15.10
2022-12-23T11:43:34.940Z,14.02
2022-12-23T11:46:17.720Z,19.73
2022-12-23T11:48:52.854Z,15.00
2022-12-23T11:51:27.791Z,13.18
2022-12-23T11:54:01.150Z,14.67
2022-12-23T11:56:30.258Z,13.13
2022-12-23T11:59:03.718Z,12.27
2022-12-23T12:01:31.656Z,11.02
2022-12-23T12:04:02.694Z,11.73
2022-12-23T12:06:33.172Z,11.10
2022-12-23T12:09:05.137Z,12.50
2022-12-23T12:11:38.865Z,8.20
2022-12-23T12:14:09.130Z,8.50
2022-12-23T12:16:51.698Z,10.13
2022-12-23T12:19:23.884Z,8.37
2022-12-23T12:21:57.422Z,10.40
2022-12-23T12:24:29.952Z,10.47
2022-12-23T12:27:02.106Z,8.17
2022-12-23T12:29:37.095Z,9.83
2022-12-23T12:32:11.445Z,9.57
2022-12-23T12:34:45.097Z,5.87
2022-12-23T12:37:23.453Z,11.17
2022-12-23T12:39:55.125Z,7.47
2022-12-23T12:42:27.778Z,8.30
2022-12-23T12:45:03.288Z,7.40
2022-12-23T12:47:54.177Z,9.57
2022-12-23T12:50:28.444Z,7.80
2022-12-23T12:53:03.082Z,11.67
2022-12-23T12:55:34.233Z,6.83
2022-12-23T12:58:03.429Z,7.07
2022-12-23T13:00:51.907Z,6.83
2022-12-23T13:03:38.772Z,7.70
2022-12-23T13:06:17.865Z,8.30
2022-12-23T13:08:58.972Z,9.70
2022-12-23T13:11:35.486Z,9.97
2022-12-23T13:14:13.520Z,8.60
2022-12-23T13:16:51.222Z,11.23
2022-12-23T13:19:33.323Z,11.10
2022-12-23T13:22:16.454Z,9.93
2022-12-23T13:25:01.910Z,6.20
2022-12-23T13:27:34.357Z,8.70
2022-12-23T13:30:07.794Z,6.90
2022-12-23T13:33:02.981Z,6.97
2022-12-23T13:36:02.946Z,10.15
2022-12-23T13:38:46.614Z,8.77
2022-12-23T13:41:27.072Z,6.13
2022-12-23T13:43:57.668Z,5.93
2022-12-23T13:46:36.332Z,6.00
2022-12-23T13:49:11.261Z,4.78
2022-12-23T13:51:45.922Z,4.63
2022-12-23T13:54:24.647Z,5.13
2022-12-23T13:57:08.243Z,6.43
2022-12-23T13:59:41.601Z,7.68
2022-12-23T14:02:42.620Z,5.47
2022-12-23T14:05:29.219Z,6.32
2022-12-23T14:07:57.269Z,5.13
2022-12-23T14:10:26.139Z,4.35
2022-12-23T14:13:02.932Z,6.87
2022-12-23T14:16:14.461Z,3.35
2022-12-23T14:19:02.195Z,4.18
2022-12-23T14:21:40.861Z,3.95
2022-12-23T14:24:30.628Z,2.83
2022-12-23T14:27:18.038Z,3.72
2022-12-23T14:30:04.888Z,7.63
2022-12-23T14:32:43.620Z,6.22
2022-12-23T14:35:24.434Z,8.52
2022-12-23T14:38:24.311Z,9.20
2022-12-23T14:40:59.666Z,5.80
2022-12-23T14:43:33.047Z,4.17
2022-12-23T14:46:04.632Z,4.68
2022-12-23T14:52:35.842Z,2.25
2022-12-23T14:55:54.436Z,3.25
2022-12-23T14:58:32.667Z,3.35
2022-12-23T15:01:05.091Z,2.35
2022-12-23T15:03:36.048Z,2.35
2022-12-23T15:06:07.415Z,4.32
2022-12-23T15:08:39.488Z,2.30
2022-12-23T15:11:10.325Z,2.05
2022-12-23T15:13:38.987Z,6.07
2022-12-23T15:16:16.270Z,2.95
2022-12-23T15:18:53.550Z,1.83
2022-12-23T15:21:21.218Z,2.57
2022-12-23T15:23:50.446Z,4.60
2022-12-23T15:26:18.595Z,3.50
2022-12-23T15:28:46.420Z,3.20
2022-12-23T15:31:27.969Z,3.28
2022-12-23T15:34:06.924Z,3.20
2022-12-23T15:36:37.540Z,3.25
2022-12-23T15:39:10.810Z,3.63
2022-12-23T15:41:45.858Z,3.67
2022-12-23T15:44:19.004Z,3.40
2022-12-23T15:46:49.017Z,4.27
2022-12-23T15:49:17.668Z,3.78
2022-12-23T15:54:39.789Z,4.30
2022-12-23T15:57:07.519Z,6.70
2022-12-23T15:59:38.260Z,4.63
2022-12-23T16:02:49.651Z,3.80
2022-12-23T16:05:06.176Z,5.17
2022-12-23T16:07:36.553Z,5.60
2022-12-23T16:10:12.562Z,6.77
2022-12-23T16:12:42.160Z,4.97
2022-12-23T16:15:21.718Z,5.90
2022-12-23T16:17:50.716Z,6.30
2022-12-23T16:20:23.966Z,7.10
2022-12-23T16:22:53.997Z,8.57
2022-12-23T16:25:24.894Z,9.23
2022-12-23T16:27:57.973Z,10.57
2022-12-23T16:30:32.580Z,8.70
2022-12-23T16:33:04.112Z,7.73
2022-12-23T16:35:38.491Z,8.90
2022-12-23T16:38:17.895Z,8.10
2022-12-23T16:40:47.472Z,7.23
2022-12-23T16:43:15.953Z,10.67
2022-12-23T16:45:45.327Z,6.13
2022-12-23T16:48:23.220Z,6.57
2022-12-23T16:50:53.032Z,6.00
2022-12-23T16:53:20.812Z,5.73
2022-12-23T16:55:55.265Z,8.87
2022-12-23T16:58:27.794Z,5.60
2022-12-23T17:00:55.851Z,5.50
2022-12-23T17:03:24.945Z,8.90
2022-12-23T17:05:52.665Z,4.83
2022-12-23T17:08:20.460Z,5.17
2022-12-23T17:10:48.149Z,4.63
2022-12-23T17:13:18.085Z,6.43
2022-12-23T17:15:46.122Z,2.53
2022-12-23T17:18:15.989Z,7.50
2022-12-23T17:20:46.318Z,2.77
2022-12-23T17:23:30.091Z,4.37
2022-12-23T17:25:58.153Z,8.93
2022-12-23T17:28:31.227Z,3.23
2022-12-23T17:30:59.833Z,4.47
2022-12-23T17:33:30.377Z,3.00
2022-12-23T17:35:59.790Z,3.73
2022-12-23T17:38:28.971Z,3.63
2022-12-23T17:40:58.979Z,4.30
2022-12-23T17:43:27.207Z,7.40
2022-12-23T17:45:54.954Z,4.23
2022-12-23T17:48:27.955Z,5.50
2022-12-23T17:51:00.356Z,4.73
2022-12-23T17:53:28.204Z,6.30
2022-12-23T17:55:56.025Z,9.83
2022-12-23T17:58:23.619Z,10.37
2022-12-23T18:00:51.339Z,6.47
2022-12-23T18:03:23.581Z,11.77
2022-12-23T18:05:59.121Z,5.00
2022-12-23T18:08:30.427Z,5.20
2022-12-23T18:10:59.296Z,6.60
2022-12-23T18:13:26.947Z,8.43
2022-12-23T18:15:56.943Z,8.57
2022-12-23T18:18:32.073Z,11.53
2022-12-23T18:21:03.286Z,11.00
2022-12-23T18:23:33.629Z,6.23
2022-12-23T18:26:02.039Z,16.33
2022-12-23T18:28:29.750Z,7.87
2022-12-23T18:30:57.833Z,14.40
2022-12-23T18:33:28.614Z,15.90
2022-12-23T18:35:56.634Z,15.67
2022-12-23T18:38:24.384Z,13.50
2022-12-23T18:40:54.807Z,12.20
2022-12-23T18:43:24.479Z,14.57
2022-12-23T18:45:54.081Z,11.70
2022-12-23T18:48:22.276Z,11.97
2022-12-23T18:50:50.049Z,13.33
2022-12-23T18:53:24.618Z,8.93
2022-12-23T18:55:54.776Z,13.00
2022-12-23T18:58:23.338Z,16.60
2022-12-23T19:00:54.168Z,15.87
2022-12-23T19:03:24.248Z,19.77
2022-12-23T19:05:53.058Z,16.67
2022-12-23T19:08:26.376Z,18.93
2022-12-23T19:10:57.072Z,19.27
2022-12-23T19:13:24.853Z,24.87
2022-12-23T19:15:53.023Z,17.67
2022-12-23T19:18:22.703Z,16.20
2022-12-23T19:20:50.810Z,15.20
2022-12-23T19:23:18.869Z,23.77
2022-12-23T19:25:54.521Z,23.53
2022-12-23T19:28:24.669Z,22.97
2022-12-23T19:30:52.414Z,17.70
2022-12-23T19:33:20.080Z,15.70
2022-12-23T19:35:47.731Z,13.30
2022-12-23T19:38:15.382Z,25.13
2022-12-23T19:40:43.016Z,23.43
2022-12-23T19:43:11.103Z,14.13
2022-12-23T19:45:40.070Z,24.53
2022-12-23T19:48:07.804Z,19.10
2022-12-23T19:50:35.423Z,18.20
2022-12-23T19:53:03.053Z,27.47
2022-12-23T19:55:30.713Z,23.23
2022-12-23T19:57:58.423Z,17.13
2022-12-23T20:00:26.094Z,17.63
2022-12-23T20:02:58.977Z,20.90
2022-12-23T20:05:27.152Z,24.23
2022-12-23T20:07:54.790Z,18.07
2022-12-23T20:10:22.427Z,18.23
2022-12-23T20:12:50.120Z,31.10
2022-12-23T20:15:18.086Z,20.80
2022-12-23T20:17:45.827Z,24.27
2022-12-23T20:20:15.112Z,30.87
2022-12-23T20:22:42.868Z,21.43
2022-12-23T20:25:10.881Z,16.73
2022-12-23T20:27:38.922Z,15.40
2022-12-23T20:30:08.105Z,23.90
2022-12-23T20:32:35.879Z,25.90
2022-12-23T20:35:03.900Z,16.30
2022-12-23T20:37:32.916Z,26.37
2022-12-23T20:40:00.576Z,20.07
2022-12-23T20:42:28.250Z,22.70
2022-12-23T20:44:55.907Z,20.87
2022-12-23T20:47:23.602Z,20.73
2022-12-23T20:49:51.242Z,17.03
2022-12-23T20:52:18.882Z,22.60
2022-12-23T20:54:48.206Z,27.43
2022-12-23T20:57:15.848Z,17.57
2022-12-23T20:59:43.560Z,24.30
2022-12-23T21:02:13.460Z,19.37
2022-12-23T21:04:41.559Z,23.37
2022-12-23T21:07:09.479Z,20.07
2022-12-23T21:09:37.181Z,24.00
2022-12-23T21:12:06.599Z,17.60
2022-12-23T21:14:34.247Z,27.23
2022-12-23T21:17:01.890Z,24.43
2022-12-23T21:19:30.042Z,25.60
2022-12-23T21:21:57.886Z,22.33
2022-12-23T21:24:25.598Z,20.00
2022-12-23T21:26:56.743Z,21.20
2022-12-23T21:29:26.789Z,20.03
2022-12-23T21:31:54.975Z,15.70
2022-12-23T21:34:23.054Z,30.80
2022-12-23T21:36:50.785Z,24.10
2022-12-23T21:39:18.732Z,22.80
2022-12-23T21:41:46.349Z,24.13
2022-12-23T21:44:14.676Z,22.50
2022-12-23T21:46:43.867Z,34.27
2022-12-23T21:49:11.989Z,26.17
2022-12-23T21:51:41.331Z,17.33
2022-12-23T21:54:10.379Z,26.30
2022-12-23T21:56:38.136Z,30.33
2022-12-23T21:59:09.165Z,22.80
2022-12-23T22:01:36.960Z,28.07
2022-12-23T22:04:06.344Z,23.43
2022-12-23T22:06:36.542Z,25.70
2022-12-23T22:09:05.206Z,28.73
2022-12-23T22:11:34.961Z,23.27
2022-12-23T22:14:04.192Z,26.40
2022-12-23T22:16:32.372Z,22.83
2022-12-23T22:19:02.173Z,19.17
2022-12-23T22:21:32.985Z,19.05
2022-12-23T22:24:01.058Z,27.83
2022-12-23T22:26:30.786Z,13.07
2022-12-23T22:29:00.367Z,15.30
2022-12-23T22:31:32.704Z,19.70
2022-12-23T22:34:00.966Z,22.60
2022-12-23T22:36:28.733Z,25.53
2022-12-23T22:38:59.402Z,25.47
2022-12-23T22:41:28.673Z,35.13
2022-12-23T22:43:56.738Z,21.85
2022-12-23T22:46:25.378Z,22.35
2022-12-23T22:48:53.786Z,22.70
2022-12-23T22:51:23.077Z,17.70
2022-12-23T22:53:51.250Z,26.75
2022-12-23T22:56:22.021Z,18.10
2022-12-23T22:58:50.986Z,26.23
2022-12-23T23:01:22.528Z,24.67
2022-12-23T23:03:56.724Z,17.63
2022-12-23T23:06:25.976Z,25.80
2022-12-23T23:08:54.329Z,13.97
2022-12-23T23:11:24.234Z,29.53
2022-12-23T23:13:52.421Z,16.88
2022-12-23T23:16:20.155Z,23.70
2022-12-23T23:18:48.088Z,23.40
2022-12-23T23:21:16.299Z,23.03
2022-12-23T23:23:44.157Z,17.63
2022-12-23T23:26:12.384Z,17.30
2022-12-23T23:28:42.037Z,19.73
2022-12-23T23:31:40.398Z,18.23
2022-12-23T23:33:58.619Z,15.80
2022-12-23T23:36:26.542Z,19.90
2022-12-23T23:38:54.292Z,17.30
2022-12-23T23:41:23.521Z,24.20
2022-12-23T23:43:53.112Z,15.20
2022-12-23T23:46:20.936Z,13.13
2022-12-23T23:48:49.020Z,16.20
2022-12-23T23:51:16.712Z,16.00
2022-12-23T23:53:44.357Z,24.38
2022-12-23T23:56:12.083Z,18.50
2022-12-23T23:58:39.730Z,25.98
